Time;durP1;ratioP1;P1;durP2;ratioP2;P2;SDS_P1;SDS_P2;PMS_P1;PMS_P2;Temp;Humidity;BMP_temperature;BMP_pressure;BME280_temperature;BME280_humidity;BME280_pressure;Samples;Min_cycle;Max_cycle;Signal;HPM_P1;HPM_P2
2022/07/24 00:01:28;;;;;;;12.40;10.32;;;;;;;18.75;66.19;101695.75;5006662;28;20033;-87
2022/07/24 00:03:53;;;;;;;13.13;10.98;;;;;;;18.72;66.38;101693.25;5007461;28;20026;-87
2022/07/24 00:06:19;;;;;;;12.25;10.60;;;;;;;18.69;67.25;101699.72;5011566;28;20030;-87
2022/07/24 00:08:44;;;;;;;12.45;10.45;;;;;;;18.65;67.38;101695.53;5009542;28;20033;-87
2022/07/24 00:11:11;;;;;;;15.30;10.80;;;;;;;18.60;67.54;101706.63;5006569;28;20561;-88
2022/07/24 00:13:36;;;;;;;11.93;10.43;;;;;;;18.51;67.52;101701.00;5023813;28;20024;-87
2022/07/24 00:16:02;;;;;;;12.82;10.52;;;;;;;18.49;68.87;101693.03;5005826;28;20392;-87
2022/07/24 00:18:28;;;;;;;13.05;10.70;;;;;;;18.46;68.28;101693.25;5009287;28;20026;-86
2022/07/24 00:20:53;;;;;;;12.38;10.55;;;;;;;18.38;67.42;101693.78;5002581;28;20052;-88
2022/07/24 00:23:18;;;;;;;11.52;10.32;;;;;;;18.39;68.28;101689.25;4980794;28;20422;-87
2022/07/24 00:25:44;;;;;;;11.75;10.55;;;;;;;18.39;69.20;101690.16;5002279;28;20045;-87
2022/07/24 00:28:09;;;;;;;13.75;9.52;;;;;;;18.34;69.32;101688.72;5000333;28;20029;-87
2022/07/24 00:30:35;;;;;;;13.07;10.68;;;;;;;18.32;68.31;101683.44;4991328;28;20045;-87
2022/07/24 00:33:00;;;;;;;15.20;10.13;;;;;;;18.28;68.52;101689.16;5004662;28;20087;-87
2022/07/24 00:35:26;;;;;;;13.95;10.70;;;;;;;18.21;69.52;101680.63;5012467;28;20391;-87
2022/07/24 00:37:51;;;;;;;13.60;10.75;;;;;;;18.22;69.47;101687.75;5006249;28;20109;-87
2022/07/24 00:40:16;;;;;;;15.35;10.55;;;;;;;18.17;70.04;101687.19;5010398;28;20476;-87
2022/07/24 00:42:43;;;;;;;12.45;11.15;;;;;;;18.14;69.58;101680.22;5008226;28;20491;-87
2022/07/24 00:45:08;;;;;;;11.65;9.70;;;;;;;18.11;70.04;101691.19;5013269;28;20419;-88
2022/07/24 00:47:34;;;;;;;11.57;10.18;;;;;;;18.11;69.80;101699.28;5017403;28;20112;-88
2022/07/24 00:50:00;;;;;;;12.30;10.30;;;;;;;18.07;70.07;101687.00;5008213;28;20030;-88
2022/07/24 00:52:26;;;;;;;11.38;10.18;;;;;;;18.09;70.12;101698.50;5002128;28;20026;-88
2022/07/24 00:54:51;;;;;;;12.80;10.38;;;;;;;18.01;70.50;101692.78;4977823;28;20103;-88
2022/07/24 00:57:16;;;;;;;11.57;9.95;;;;;;;18.00;70.91;101684.81;5005686;28;20468;-89
2022/07/24 00:59:42;;;;;;;13.50;10.90;;;;;;;18.01;71.00;101683.84;5006239;28;20026;-87
2022/07/24 01:02:07;;;;;;;11.40;10.10;;;;;;;18.01;71.22;101697.31;4998726;28;20129;-87
2022/07/24 01:04:32;;;;;;;12.48;10.25;;;;;;;18.00;71.19;101698.28;4999249;28;20113;-87
2022/07/24 01:06:58;;;;;;;11.45;10.05;;;;;;;17.97;72.34;101693.09;5014902;28;20314;-86
2022/07/24 01:09:24;;;;;;;13.35;10.40;;;;;;;17.95;71.89;101686.97;5005640;28;20034;-87
2022/07/24 01:11:51;;;;;;;12.38;10.23;;;;;;;17.87;71.87;101688.34;5004913;28;20033;-87
2022/07/24 01:14:17;;;;;;;13.50;10.60;;;;;;;17.87;71.61;101684.78;4994950;28;20030;-87
2022/07/24 01:16:42;;;;;;;12.38;11.07;;;;;;;17.83;71.92;101684.13;5010270;28;20029;-87
2022/07/24 01:19:08;;;;;;;12.95;10.38;;;;;;;17.78;72.30;101680.91;5008119;28;20037;-87
2022/07/24 01:21:33;;;;;;;13.98;10.52;;;;;;;17.73;72.76;101676.78;4999715;28;20062;-87
2022/07/24 01:23:58;;;;;;;12.18;9.75;;;;;;;17.72;73.11;101678.56;4997725;28;20108;-87
2022/07/24 01:26:24;;;;;;;11.88;10.13;;;;;;;17.67;72.66;101670.81;5008737;28;20026;-87
2022/07/24 01:28:49;;;;;;;14.23;10.68;;;;;;;17.71;73.11;101673.31;5010770;28;20034;-87
2022/07/24 01:31:14;;;;;;;12.25;10.85;;;;;;;17.65;73.26;101672.75;5011704;28;20025;-87
2022/07/24 01:33:40;;;;;;;11.77;10.25;;;;;;;17.59;73.08;101669.59;4986791;28;20361;-87
2022/07/24 01:36:05;;;;;;;12.35;10.80;;;;;;;17.55;73.00;101663.56;4985461;28;20061;-87
2022/07/24 01:38:30;;;;;;;15.27;11.25;;;;;;;17.55;73.18;101660.88;5012212;28;20137;-88
2022/07/24 01:40:56;;;;;;;12.95;11.23;;;;;;;17.55;73.51;101663.56;5007204;28;20030;-89
2022/07/24 01:43:21;;;;;;;14.35;11.93;;;;;;;17.53;73.31;101664.66;4983398;28;20092;-88
2022/07/24 01:45:46;;;;;;;13.90;11.48;;;;;;;17.48;73.91;101666.78;5004071;28;20061;-88
2022/07/24 01:48:12;;;;;;;13.38;11.98;;;;;;;17.47;74.19;101660.50;4997151;28;20034;-88
2022/07/24 01:50:38;;;;;;;18.67;12.38;;;;;;;17.46;74.17;101671.41;5012706;28;20026;-88
2022/07/24 01:53:03;;;;;;;15.20;11.48;;;;;;;17.45;73.60;101661.59;5018331;28;20113;-89
2022/07/24 01:55:30;;;;;;;15.30;11.10;;;;;;;17.40;73.35;101662.78;5013051;28;20029;-88
2022/07/24 01:57:55;;;;;;;13.68;11.25;;;;;;;17.42;74.22;101658.13;5004061;28;20021;-88
2022/07/24 02:00:20;;;;;;;14.65;11.45;;;;;;;17.41;72.94;101653.72;5024222;28;20061;-88
2022/07/24 02:02:46;;;;;;;13.40;11.57;;;;;;;17.41;73.44;101661.78;5022396;28;20021;-88
2022/07/24 02:05:13;;;;;;;15.63;12.23;;;;;;;17.38;73.26;101664.69;5009034;28;20033;-88
2022/07/24 02:07:39;;;;;;;15.02;11.93;;;;;;;17.38;73.86;101661.13;5009072;28;20025;-88
2022/07/24 02:10:05;;;;;;;15.85;12.52;;;;;;;17.35;73.33;101653.28;5018295;28;20035;-88
2022/07/24 02:12:30;;;;;;;15.93;12.50;;;;;;;17.34;73.15;101659.63;5007543;28;20022;-88
2022/07/24 02:14:55;;;;;;;16.30;12.15;;;;;;;17.30;73.51;101658.94;5019504;28;20093;-88
2022/07/24 02:17:21;;;;;;;15.45;11.82;;;;;;;17.30;73.35;101664.31;5024124;28;20378;-88
2022/07/24 02:19:46;;;;;;;13.80;11.75;;;;;;;17.28;73.84;101652.81;5016665;28;20076;-88
2022/07/24 02:22:11;;;;;;;13.30;11.90;;;;;;;17.25;74.41;101650.31;5004780;28;20049;-88
2022/07/24 02:24:37;;;;;;;14.57;12.23;;;;;;;17.24;74.41;101667.44;5004779;28;20029;-88
2022/07/24 02:27:02;;;;;;;15.68;13.25;;;;;;;17.20;74.68;101659.69;5004934;28;20448;-87
2022/07/24 02:29:27;;;;;;;15.90;13.07;;;;;;;17.21;74.97;101654.19;5012968;28;20041;-88
2022/07/24 02:31:53;;;;;;;16.52;12.07;;;;;;;17.16;75.24;101659.88;5017094;28;20026;-87
2022/07/24 02:34:18;;;;;;;14.88;12.68;;;;;;;17.17;75.22;101652.66;5010790;28;20034;-87
2022/07/24 02:36:43;;;;;;;17.58;11.63;;;;;;;17.17;74.96;101656.19;5025038;28;20108;-86
2022/07/24 02:39:09;;;;;;;15.02;12.65;;;;;;;17.12;75.31;101654.78;4997353;28;20130;-88
2022/07/24 02:41:34;;;;;;;15.32;12.05;;;;;;;17.08;75.70;101647.88;4999875;28;20587;-88
2022/07/24 02:43:59;;;;;;;15.60;12.38;;;;;;;17.06;75.45;101653.38;5010990;28;20029;-88
2022/07/24 02:46:25;;;;;;;14.43;12.00;;;;;;;17.03;75.52;101652.72;5012818;28;20042;-88
2022/07/24 02:48:50;;;;;;;14.05;12.55;;;;;;;16.95;75.97;101646.97;5009046;28;20591;-87
2022/07/24 02:51:15;;;;;;;14.45;11.73;;;;;;;16.95;75.97;101653.19;5017433;28;20022;-88
2022/07/24 02:53:40;;;;;;;13.65;12.00;;;;;;;16.90;76.63;101658.03;5005611;28;20038;-86
2022/07/24 02:56:06;;;;;;;13.02;11.65;;;;;;;16.92;76.79;101661.47;5006997;28;20089;-87
2022/07/24 02:58:32;;;;;;;15.40;12.45;;;;;;;16.90;76.67;101669.63;5012248;28;20026;-88
2022/07/24 03:00:57;;;;;;;18.90;12.52;;;;;;;16.86;76.85;101669.94;5001699;28;20038;-89
2022/07/24 03:03:23;;;;;;;14.30;12.60;;;;;;;16.81;77.08;101667.53;5016143;28;20054;-88
2022/07/24 03:05:48;;;;;;;12.88;11.48;;;;;;;16.78;77.47;101667.72;5012282;28;20041;-87
2022/07/24 03:08:14;;;;;;;14.45;12.18;;;;;;;16.79;77.10;101666.75;4994939;28;20125;-87
2022/07/24 03:10:39;;;;;;;12.40;11.10;;;;;;;16.79;77.39;101677.50;5014536;28;20041;-88
2022/07/24 03:13:05;;;;;;;12.32;11.02;;;;;;;16.78;76.73;101678.47;5014027;28;20041;-87
2022/07/24 03:15:31;;;;;;;17.10;11.15;;;;;;;16.77;76.86;101665.16;5013098;28;20026;-88
2022/07/24 03:17:57;;;;;;;11.95;10.77;;;;;;;16.77;76.76;101665.16;5019238;28;20041;-87
2022/07/24 03:20:24;;;;;;;12.50;11.20;;;;;;;16.77;76.89;101662.47;4995880;28;20029;-86
2022/07/24 03:22:50;;;;;;;13.82;10.93;;;;;;;16.76;76.77;101658.91;5009187;28;20026;-86
2022/07/24 03:25:16;;;;;;;11.43;10.27;;;;;;;16.76;76.99;101661.59;5004914;28;20336;-87
2022/07/24 03:27:41;;;;;;;12.90;11.57;;;;;;;16.75;76.55;101662.53;5005049;28;20065;-89
2022/07/24 03:30:08;;;;;;;14.65;11.23;;;;;;;16.78;76.20;101664.19;4990902;28;20330;-87
2022/07/24 03:32:33;;;;;;;12.32;11.02;;;;;;;16.76;77.73;101658.91;5010604;28;20095;-88
2022/07/24 03:34:59;;;;;;;12.75;11.27;;;;;;;16.76;77.43;101658.03;4997105;28;20034;-88
2022/07/24 03:37:24;;;;;;;12.93;10.77;;;;;;;16.71;77.80;101652.91;5001766;28;20038;-87
2022/07/24 03:39:49;;;;;;;13.43;10.98;;;;;;;16.68;77.86;101654.00;5000204;28;20046;-88
2022/07/24 03:42:15;;;;;;;15.77;10.93;;;;;;;16.73;77.88;101667.16;5007086;28;20487;-88
2022/07/24 03:44:40;;;;;;;13.98;11.52;;;;;;;16.72;77.41;101664.53;5002240;28;20032;-87
2022/07/24 03:47:05;;;;;;;14.15;12.45;;;;;;;16.66;77.78;101669.34;5017364;28;20461;-89
2022/07/24 03:49:31;;;;;;;14.25;11.90;;;;;;;16.67;78.16;101673.75;5008622;28;20056;-87
2022/07/24 03:51:56;;;;;;;13.52;11.82;;;;;;;16.62;78.34;101657.06;5008234;28;20033;-88
2022/07/24 03:54:21;;;;;;;13.10;11.55;;;;;;;16.61;78.61;101655.31;4992996;28;20041;-87
2022/07/24 03:56:47;;;;;;;16.02;12.30;;;;;;;16.60;78.73;101664.38;5013107;28;20026;-87
2022/07/24 03:59:12;;;;;;;16.63;12.55;;;;;;;16.58;78.97;101660.03;5008882;28;20022;-88
2022/07/24 04:01:38;;;;;;;17.65;12.55;;;;;;;16.54;79.14;101653.97;5003450;28;20029;-87
2022/07/24 04:04:06;;;;;;;14.82;12.43;;;;;;;16.56;79.71;101662.81;5005871;28;20384;-88
2022/07/24 04:06:33;;;;;;;16.00;13.10;;;;;;;16.55;79.81;101657.53;5011709;28;20075;-88
2022/07/24 04:08:59;;;;;;;17.20;13.45;;;;;;;16.57;79.71;101652.94;5011049;28;20044;-88
2022/07/24 04:11:25;;;;;;;16.73;14.02;;;;;;;16.59;80.22;101656.38;4998283;28;20057;-88
2022/07/24 04:13:50;;;;;;;15.93;13.68;;;;;;;16.57;80.37;101656.47;5005700;28;20031;-88
2022/07/24 04:16:16;;;;;;;19.25;14.82;;;;;;;16.62;80.55;101666.94;4993130;28;20053;-89
2022/07/24 04:18:41;;;;;;;18.60;14.07;;;;;;;16.60;79.62;101658.13;5019205;28;20051;-89
2022/07/24 04:21:06;;;;;;;17.38;15.20;;;;;;;16.65;79.73;101661.38;4993419;28;20053;-86
2022/07/24 04:23:32;;;;;;;20.60;15.23;;;;;;;16.59;80.54;101651.84;4997227;28;20033;-87
2022/07/24 04:25:57;;;;;;;17.02;15.05;;;;;;;16.65;79.75;101662.25;4986771;28;20025;-86
2022/07/24 04:28:22;;;;;;;19.08;15.68;;;;;;;16.63;80.18;101648.00;5004820;28;20038;-86
2022/07/24 04:30:48;;;;;;;21.25;15.15;;;;;;;16.69;80.23;101653.03;5018267;28;20066;-86
2022/07/24 04:33:13;;;;;;;19.30;15.70;;;;;;;16.71;80.13;101650.22;5020637;28;20026;-87
2022/07/24 04:35:38;;;;;;;19.83;15.82;;;;;;;16.72;80.30;101662.72;5002302;28;20373;-87
2022/07/24 04:38:04;;;;;;;18.63;15.43;;;;;;;16.76;80.21;101666.09;5017457;28;20490;-87
2022/07/24 04:40:29;;;;;;;21.25;16.60;;;;;;;16.78;80.05;101672.25;5011589;28;20034;-89
2022/07/24 04:42:54;;;;;;;20.38;16.13;;;;;;;16.78;80.50;101675.78;5013606;28;20037;-87
2022/07/24 04:45:20;;;;;;;19.00;16.35;;;;;;;16.79;80.12;101669.44;5025631;28;20029;-88
2022/07/24 04:47:45;;;;;;;19.17;15.70;;;;;;;16.79;79.43;101669.44;4990625;28;20576;-88
2022/07/24 04:50:11;;;;;;;20.58;17.02;;;;;;;16.79;79.82;101674.81;5009426;28;20029;-88
2022/07/24 04:52:36;;;;;;;22.63;18.70;;;;;;;16.77;79.84;101674.06;4994736;28;20499;-87
2022/07/24 04:55:02;;;;;;;21.55;18.27;;;;;;;16.80;80.42;101667.63;5009602;28;20480;-87
2022/07/24 04:57:27;;;;;;;26.17;19.67;;;;;;;16.83;80.49;101675.50;5011358;28;20068;-88
2022/07/24 04:59:52;;;;;;;27.52;20.33;;;;;;;16.83;80.77;101665.59;5003285;28;20507;-88
2022/07/24 05:02:18;;;;;;;28.48;20.88;;;;;;;16.82;81.19;101671.09;5001191;28;20459;-88
2022/07/24 05:04:43;;;;;;;29.40;21.27;;;;;;;16.86;80.75;101668.09;5002840;28;20034;-88
2022/07/24 05:07:08;;;;;;;30.73;22.27;;;;;;;16.87;80.47;101677.03;5005279;28;20024;-89
2022/07/24 05:09:34;;;;;;;28.13;22.55;;;;;;;16.90;81.26;101675.00;4998110;28;20030;-88
2022/07/24 05:11:59;;;;;;;30.20;23.63;;;;;;;16.91;80.92;101667.81;4994689;28;20091;-88
2022/07/24 05:14:24;;;;;;;31.92;22.77;;;;;;;16.98;80.97;101671.84;5007956;28;20026;-88
2022/07/24 05:16:50;;;;;;;29.10;22.55;;;;;;;17.05;81.05;101661.53;5002405;28;20442;-88
2022/07/24 05:19:15;;;;;;;31.02;23.80;;;;;;;17.14;81.15;101669.03;5016949;28;20032;-89
2022/07/24 05:21:43;;;;;;;34.80;24.85;;;;;;;17.24;80.82;101664.75;5006971;28;20018;-88
2022/07/24 05:24:08;;;;;;;38.30;26.42;;;;;;;17.28;81.03;101652.81;5006048;28;20023;-88
2022/07/24 05:26:33;;;;;;;34.80;25.30;;;;;;;17.38;79.93;101661.13;5010133;28;20423;-87
2022/07/24 05:28:59;;;;;;;37.30;25.73;;;;;;;17.43;80.18;101661.69;5004227;28;20115;-87
2022/07/24 05:31:25;;;;;;;34.90;25.35;;;;;;;17.53;80.17;101673.56;5015500;28;20030;-89
2022/07/24 05:33:50;;;;;;;34.53;26.10;;;;;;;17.60;80.90;101684.81;5005955;28;20053;-87
2022/07/24 05:36:15;;;;;;;33.63;25.15;;;;;;;17.67;80.38;101681.56;5010312;28;20117;-90
2022/07/24 05:38:41;;;;;;;35.38;25.88;;;;;;;17.71;79.24;101676.84;4994581;28;20054;-89
2022/07/24 05:41:06;;;;;;;36.83;25.98;;;;;;;17.81;79.89;101678.00;5007458;28;20065;-87
2022/07/24 05:43:32;;;;;;;37.30;25.77;;;;;;;17.84;78.35;101675.09;5032593;28;20028;-87
2022/07/24 05:45:57;;;;;;;37.50;24.83;;;;;;;17.94;77.84;101682.56;5017956;28;20026;-87
2022/07/24 05:48:22;;;;;;;32.28;23.85;;;;;;;18.02;77.56;101685.59;5015343;28;20037;-85
2022/07/24 05:50:47;;;;;;;32.55;23.20;;;;;;;18.08;75.73;101674.38;5000310;28;20061;-87
2022/07/24 05:53:13;;;;;;;29.60;21.75;;;;;;;18.16;75.42;101674.72;4997951;28;20383;-86
2022/07/24 05:55:38;;;;;;;28.25;21.88;;;;;;;18.26;75.46;101670.38;4997203;28;20270;-86
2022/07/24 05:58:03;;;;;;;26.17;21.05;;;;;;;18.46;74.84;101681.59;5009641;28;20458;-85
2022/07/24 06:00:29;;;;;;;29.27;19.55;;;;;;;18.63;72.43;101674.03;5013928;28;20024;-86
2022/07/24 06:02:54;;;;;;;24.05;18.92;;;;;;;18.87;72.52;101681.38;5009891;28;20361;-86
2022/07/24 06:05:20;;;;;;;23.90;18.38;;;;;;;19.03;71.10;101675.72;5009355;28;20038;-85
2022/07/24 06:07:45;;;;;;;22.95;17.98;;;;;;;19.19;69.76;101676.31;5009149;28;20065;-85
2022/07/24 06:10:11;;;;;;;24.33;17.65;;;;;;;19.35;69.04;101681.44;5004917;28;20061;-87
2022/07/24 06:12:36;;;;;;;22.30;17.30;;;;;;;19.54;68.59;101683.63;4993910;28;20447;-85
2022/07/24 06:15:02;;;;;;;23.38;17.38;;;;;;;19.73;68.16;101689.41;5006457;28;20116;-87
2022/07/24 06:17:28;;;;;;;24.77;17.48;;;;;;;19.91;66.79;101684.41;4992376;28;20026;-86
2022/07/24 06:19:53;;;;;;;24.52;17.67;;;;;;;20.14;66.59;101696.13;5008164;28;20026;-88
2022/07/24 06:22:18;;;;;;;22.70;16.77;;;;;;;20.15;65.40;101689.78;4984759;28;20422;-89
2022/07/24 06:24:44;;;;;;;20.75;16.45;;;;;;;20.25;65.23;101693.47;5008745;28;20030;-88
2022/07/24 06:27:09;;;;;;;22.95;17.38;;;;;;;20.35;63.86;101702.56;5013359;28;20036;-89
2022/07/24 06:29:34;;;;;;;19.45;15.23;;;;;;;20.36;63.78;101698.91;4999057;28;20093;-88
2022/07/24 06:32:00;;;;;;;20.55;15.52;;;;;;;20.44;62.83;101694.72;4994385;28;20106;-88
2022/07/24 06:34:25;;;;;;;18.38;14.90;;;;;;;20.52;62.77;101700.41;4990690;28;20033;-88
2022/07/24 06:36:51;;;;;;;19.85;14.93;;;;;;;20.67;63.42;101707.31;4986513;28;20085;-87
2022/07/24 06:39:17;;;;;;;18.08;14.20;;;;;;;20.89;63.09;101699.19;5003686;28;20077;-88
2022/07/24 06:41:42;;;;;;;17.27;12.90;;;;;;;21.09;60.97;101696.72;4997901;28;20042;-88
2022/07/24 06:44:08;;;;;;;18.02;13.90;;;;;;;21.31;61.53;101684.97;4996566;28;20030;-87
2022/07/24 06:46:33;;;;;;;17.67;13.98;;;;;;;21.52;60.38;101685.91;5002856;28;20030;-87
2022/07/24 06:48:59;;;;;;;20.23;15.00;;;;;;;21.66;59.21;101692.03;5008222;28;20100;-87
2022/07/24 06:51:24;;;;;;;19.00;13.98;;;;;;;21.71;59.10;101698.78;5003623;28;20026;-89
2022/07/24 06:53:49;;;;;;;16.67;12.60;;;;;;;21.86;61.04;101700.19;4995566;28;20053;-87
2022/07/24 06:56:15;;;;;;;16.10;12.20;;;;;;;21.94;58.24;101688.69;5003220;28;20092;-89
2022/07/24 06:58:40;;;;;;;12.13;10.18;;;;;;;22.06;57.97;101693.06;5012302;28;20025;-88
2022/07/24 07:01:05;;;;;;;15.13;12.05;;;;;;;22.05;56.46;101693.19;5017201;28;20022;-89
2022/07/24 07:03:31;;;;;;;14.73;11.70;;;;;;;22.13;57.70;101691.56;5011365;28;20052;-89
2022/07/24 07:05:56;;;;;;;16.73;11.50;;;;;;;22.26;55.95;101685.94;5006449;28;20395;-88
2022/07/24 07:08:21;;;;;;;13.25;9.82;;;;;;;22.30;55.09;101683.84;4987604;28;20029;-88
2022/07/24 07:10:47;;;;;;;11.15;9.52;;;;;;;22.43;55.84;101691.75;4991961;28;20088;-87
2022/07/24 07:13:12;;;;;;;12.52;9.65;;;;;;;22.50;54.18;101682.09;5000144;28;20034;-87
2022/07/24 07:15:37;;;;;;;10.82;9.10;;;;;;;22.67;54.95;101683.31;5007942;28;20072;-86
2022/07/24 07:18:03;;;;;;;13.93;10.00;;;;;;;22.85;56.32;101677.09;5008418;28;20460;-86
2022/07/24 07:20:28;;;;;;;13.80;10.35;;;;;;;22.95;52.40;101673.56;5005850;28;20026;-90
2022/07/24 07:22:53;;;;;;;13.35;9.65;;;;;;;23.05;52.98;101677.19;5009722;28;20034;-86
2022/07/24 07:25:19;;;;;;;11.15;9.13;;;;;;;23.33;52.62;101681.81;5010625;28;20081;-87
2022/07/24 07:27:44;;;;;;;10.60;8.55;;;;;;;23.63;50.77;101684.56;5008576;28;20553;-87
2022/07/24 07:30:12;;;;;;;10.55;8.30;;;;;;;23.86;49.07;101684.13;5000554;28;20082;-90
2022/07/24 07:32:38;;;;;;;8.88;7.40;;;;;;;23.89;48.38;101693.88;4987171;28;20022;-88
2022/07/24 07:35:04;;;;;;;9.32;7.13;;;;;;;24.15;47.66;101693.28;4983928;28;20037;-86
2022/07/24 07:37:29;;;;;;;8.93;7.68;;;;;;;24.31;47.66;101694.38;4993565;28;20038;-89
2022/07/24 07:39:55;;;;;;;9.73;7.40;;;;;;;24.66;46.15;101690.16;4994847;28;20454;-89
2022/07/24 07:42:20;;;;;;;9.48;6.43;;;;;;;25.02;46.16;101690.28;5006080;28;20025;-90
2022/07/24 07:44:47;;;;;;;8.98;6.95;;;;;;;25.47;45.10;101686.72;5010866;28;20486;-88
2022/07/24 07:47:13;;;;;;;7.50;5.93;;;;;;;25.99;42.85;101692.34;4987202;28;20522;-93
2022/07/24 07:49:38;;;;;;;6.10;5.22;;;;;;;26.28;42.00;101687.44;5003077;28;20385;-91
2022/07/24 07:52:04;;;;;;;7.95;6.05;;;;;;;26.64;41.75;101691.97;5008795;28;20468;-91
2022/07/24 07:54:29;;;;;;;8.32;5.50;;;;;;;27.10;40.71;101698.84;4999706;28;20554;-89
2022/07/24 07:56:54;;;;;;;5.50;4.90;;;;;;;27.27;38.82;101694.28;5005222;28;20026;-88
2022/07/24 07:59:20;;;;;;;7.75;5.32;;;;;;;27.65;39.21;101691.97;5002254;28;20069;-88
2022/07/24 08:01:45;;;;;;;6.05;4.85;;;;;;;28.45;37.50;101686.69;4998635;28;20033;-90
2022/07/24 08:04:11;;;;;;;7.70;5.10;;;;;;;28.91;37.44;101684.13;5000115;28;20026;-89
2022/07/24 08:06:36;;;;;;;4.78;4.28;;;;;;;29.52;36.46;101679.69;4990879;28;20416;-88
2022/07/24 08:09:02;;;;;;;4.82;4.30;;;;;;;29.81;34.56;101675.41;5004864;28;20065;-87
2022/07/24 08:11:28;;;;;;;6.57;4.72;;;;;;;29.77;33.93;101675.75;5013902;28;20037;-89
2022/07/24 08:13:54;;;;;;;5.10;4.57;;;;;;;29.84;33.96;101686.00;5013570;28;20033;-86
2022/07/24 08:16:19;;;;;;;6.40;4.47;;;;;;;29.86;34.05;101671.06;5010754;28;20037;-87
2022/07/24 08:18:44;;;;;;;4.68;4.05;;;;;;;30.10;34.95;101678.22;5019709;28;20032;-90
2022/07/24 08:21:10;;;;;;;4.57;3.55;;;;;;;30.61;32.71;101678.38;5026852;28;20037;-88
2022/07/24 08:23:35;;;;;;;5.00;3.50;;;;;;;31.27;32.45;101681.19;5010963;28;20029;-92
2022/07/24 08:26:01;;;;;;;3.97;3.58;;;;;;;31.72;32.49;101684.63;5000894;28;20468;-89
2022/07/24 08:28:26;;;;;;;6.07;3.50;;;;;;;32.09;31.22;101680.75;4998758;28;20033;-87
2022/07/24 08:30:51;;;;;;;3.80;3.40;;;;;;;32.37;30.36;101682.66;5010147;28;20026;-89
2022/07/24 08:33:17;;;;;;;3.60;3.30;;;;;;;32.44;29.11;101681.69;4986053;28;20480;-86
2022/07/24 08:35:42;;;;;;;4.03;3.63;;;;;;;32.53;29.54;101679.59;5005230;28;20034;-88
2022/07/24 08:38:07;;;;;;;5.07;2.95;;;;;;;32.73;30.21;101688.84;5007192;28;20068;-89
2022/07/24 08:40:35;;;;;;;3.00;2.50;;;;;;;32.95;28.22;101678.59;5000207;28;20460;-87
2022/07/24 08:43:02;;;;;;;2.97;2.70;;;;;;;32.83;27.41;101682.94;5005062;28;20460;-88
2022/07/24 08:45:27;;;;;;;3.17;2.50;;;;;;;32.85;27.16;101679.97;5010250;28;20065;-89
2022/07/24 08:47:55;;;;;;;2.65;2.30;;;;;;;33.31;27.79;101682.09;5012662;28;20510;-89
2022/07/24 08:50:20;;;;;;;2.85;2.63;;;;;;;33.95;27.36;101681.59;4997199;28;20467;-90
2022/07/24 08:52:46;;;;;;;5.95;5.35;;;;;;;34.38;26.05;101673.69;5000579;28;20024;-88
2022/07/24 08:55:12;;;;;;;3.13;2.80;;;;;;;35.11;25.57;101679.03;5007475;28;20040;-91
2022/07/24 08:57:38;;;;;;;3.15;2.70;;;;;;;35.64;24.80;101675.97;4985158;28;20732;-90
2022/07/24 09:00:04;;;;;;;3.28;2.70;;;;;;;35.81;24.17;101678.19;4991175;28;20030;-91
2022/07/24 09:02:29;;;;;;;3.28;2.45;;;;;;;35.98;23.43;101675.75;5008503;28;20033;-89
2022/07/24 09:04:59;;;;;;;3.60;2.60;;;;;;;35.93;24.00;101666.16;5013072;28;20495;-89
2022/07/24 09:07:28;;;;;;;3.17;2.33;;;;;;;36.16;22.62;101664.69;5001523;28;20387;-89
2022/07/24 09:10:11;;;;;;;2.35;1.85;;;;;;;36.46;23.72;101673.19;5005684;28;20045;-89
2022/07/24 09:12:41;;;;;;;2.35;2.10;;;;;;;36.47;22.93;101669.31;5005246;28;20030;-89
2022/07/24 09:15:15;;;;;;;2.35;2.15;;;;;;;36.72;23.14;101668.41;5001607;28;20383;-90
2022/07/24 09:17:54;;;;;;;2.47;2.25;;;;;;;36.23;23.04;101673.78;4991036;28;20049;-92
2022/07/24 09:20:21;;;;;;;3.20;2.30;;;;;;;36.40;23.25;101666.56;4992149;28;20030;-89
2022/07/24 09:22:47;;;;;;;2.20;2.00;;;;;;;36.88;21.86;101673.31;5009353;28;20030;-89
2022/07/24 09:25:20;;;;;;;2.63;2.40;;;;;;;37.35;23.25;101666.06;5024967;28;20049;-88
2022/07/24 09:27:46;;;;;;;4.10;3.00;;;;;;;37.57;22.13;101671.94;5021744;28;20033;-88
2022/07/24 09:30:44;;;;;;;4.57;3.20;;;;;;;37.58;23.39;101664.47;5011656;28;20950;-91
2022/07/24 09:33:12;;;;;;;10.23;3.85;;;;;;;37.94;22.14;101655.13;5012033;28;20186;-90
2022/07/24 09:35:51;;;;;;;15.55;5.05;;;;;;;38.28;21.55;101659.00;5008717;28;20091;-88
2022/07/24 09:38:20;;;;;;;2.40;2.20;;;;;;;38.37;20.82;101651.16;5010974;28;20048;-88
2022/07/24 09:40:54;;;;;;;4.88;4.10;;;;;;;38.46;22.08;101649.72;5018188;28;20085;-86
2022/07/24 09:43:22;;;;;;;4.25;3.75;;;;;;;38.71;21.86;101640.22;4987290;28;20026;-88
2022/07/24 09:46:01;;;;;;;3.08;2.70;;;;;;;38.76;20.72;101657.03;5002846;28;20046;-86
2022/07/24 09:48:32;;;;;;;3.08;2.10;;;;;;;38.04;21.48;101648.97;5007784;28;20038;-84
2022/07/24 09:51:19;;;;;;;3.78;3.38;;;;;;;38.21;20.97;101654.66;4984986;28;20119;-87
2022/07/24 09:53:46;;;;;;;2.60;2.40;;;;;;;38.41;20.95;101644.03;5000331;28;20065;-87
2022/07/24 09:56:16;;;;;;;2.30;2.10;;;;;;;39.21;21.02;101636.78;4992691;28;20026;-88
2022/07/24 09:58:44;;;;;;;2.30;2.10;;;;;;;39.63;19.64;101625.28;5006614;28;20046;-87
2022/07/24 10:01:10;;;;;;;2.80;2.60;;;;;;;39.72;19.93;101629.41;5005796;28;20060;-87
2022/07/24 10:03:38;;;;;;;2.65;1.80;;;;;;;40.42;19.31;101623.19;5018128;28;20021;-88
2022/07/24 10:06:06;;;;;;;2.45;2.00;;;;;;;40.50;19.03;101625.53;5001457;28;20026;-88
2022/07/24 10:08:33;;;;;;;2.20;2.00;;;;;;;40.53;18.61;101638.13;4986427;28;20119;-87
2022/07/24 10:10:58;;;;;;;2.58;2.10;;;;;;;40.31;19.48;101616.66;5017960;28;20083;-87
2022/07/24 10:13:27;;;;;;;2.60;2.40;;;;;;;40.57;18.78;101626.22;5006212;28;20543;-86
2022/07/24 10:16:11;;;;;;;2.60;2.30;;;;;;;40.71;20.40;101623.88;5007201;28;20051;-89
2022/07/24 10:18:54;;;;;;;2.50;2.30;;;;;;;40.78;18.45;101629.28;5006648;28;20030;-89
2022/07/24 10:21:21;;;;;;;3.50;3.20;;;;;;;40.97;18.71;101627.00;4979174;28;20081;-88
2022/07/24 10:24:03;;;;;;;3.08;2.65;;;;;;;41.51;19.42;101638.16;5009167;28;20034;-88
2022/07/24 10:26:36;;;;;;;2.78;2.58;;;;;;;41.64;18.66;101629.38;5011581;28;20038;-89
2022/07/24 10:29:16;;;;;;;3.17;2.10;;;;;;;41.93;18.66;101617.84;5010873;28;20081;-86
2022/07/24 10:31:44;;;;;;;2.55;2.35;;;;;;;41.69;17.58;101621.00;5010998;28;20092;-87
2022/07/24 10:34:27;;;;;;;3.35;2.40;;;;;;;41.84;18.13;101614.72;5006674;28;20041;-89
2022/07/24 10:37:19;;;;;;;3.10;2.13;;;;;;;42.52;18.59;101610.09;5010751;28;20037;-90
2022/07/24 10:40:03;;;;;;;2.47;2.28;;;;;;;43.22;17.24;101609.75;5017554;28;20084;-87
2022/07/24 10:42:29;;;;;;;2.63;2.30;;;;;;;42.86;16.50;101600.44;5010827;28;20036;-89
2022/07/24 10:45:30;;;;;;;2.58;2.38;;;;;;;43.64;18.32;101603.06;4987498;28;20022;-90
2022/07/24 10:47:56;;;;;;;2.67;2.47;;;;;;;43.79;18.27;101594.63;4984014;28;20407;-87
2022/07/24 10:50:22;;;;;;;2.92;2.50;;;;;;;44.19;16.00;101593.75;5009332;28;20057;-89
2022/07/24 10:52:47;;;;;;;6.13;5.55;;;;;;;44.43;16.34;101582.69;5001052;28;20046;-89
2022/07/24 10:55:32;;;;;;;4.07;3.38;;;;;;;44.26;16.60;101582.22;5004889;28;20054;-88
2022/07/24 10:58:16;;;;;;;3.65;2.85;;;;;;;44.32;17.62;101581.09;5009217;28;20029;-91
2022/07/24 11:00:50;;;;;;;3.25;2.90;;;;;;;44.26;16.55;101575.78;5006153;28;20037;-89
2022/07/24 11:03:28;;;;;;;3.55;2.72;;;;;;;44.47;17.18;101583.81;5004085;28;20053;-90
2022/07/24 11:06:11;;;;;;;3.22;2.63;;;;;;;44.82;16.88;101589.56;5000736;28;20034;-92
2022/07/24 11:08:45;;;;;;;;;;;;;;;45.80;17.08;101591.34;5022193;28;20034;-90
2022/07/24 11:11:27;;;;;;;3.20;2.90;;;;;;;45.65;15.01;101583.03;5010572;28;19922;-90
2022/07/24 11:13:56;;;;;;;3.42;2.50;;;;;;;45.95;16.71;101579.09;5009001;28;20033;-86